createdAt,value
2019-03-19T14:39:04.897Z,40.00
2019-03-19T14:40:04.542Z,52.00
2019-03-19T14:41:04.531Z,52.00
2019-03-19T14:42:04.558Z,56.00
2019-03-19T14:43:04.526Z,60.00
2019-03-19T14:44:04.539Z,56.00
2019-03-19T14:45:04.502Z,56.00
2019-03-19T14:46:04.501Z,56.00
2019-03-19T15:25:56.215Z,4836.00
2019-03-19T15:26:56.113Z,3716.00
2019-03-19T15:27:56.167Z,4148.00
2019-03-19T15:28:56.122Z,6760.00
2019-03-19T15:29:56.075Z,7108.00
2019-03-19T15:30:56.090Z,5596.00
2019-03-19T15:31:56.054Z,4784.00
2019-03-19T15:32:56.146Z,4588.00
2019-03-19T15:33:56.098Z,6856.00
2019-03-19T15:34:56.033Z,12320.00
2019-03-19T15:35:56.018Z,10864.00
2019-03-19T15:36:55.996Z,6832.00
2019-03-19T15:37:56.272Z,5504.00
2019-03-19T15:38:55.985Z,4496.00
2019-03-19T15:39:55.981Z,4080.00
2019-03-19T15:40:55.978Z,4004.00
2019-03-19T15:41:55.956Z,4260.00
2019-03-19T15:42:55.971Z,4368.00
2019-03-19T15:43:55.930Z,4420.00
2019-03-19T15:44:56.034Z,4412.00
2019-03-19T15:45:55.955Z,4052.00
2019-03-19T15:46:55.900Z,3816.00
2019-03-19T15:47:55.935Z,3828.00
2019-03-19T15:48:55.923Z,3716.00
2019-03-19T15:49:55.888Z,3648.00
2019-03-19T15:50:55.857Z,3592.00
2019-03-19T15:51:55.850Z,3552.00
2019-03-19T15:52:55.845Z,3752.00
2019-03-19T15:53:55.879Z,3800.00
2019-03-19T15:54:55.824Z,3920.00
2019-03-19T15:55:55.835Z,4004.00
2019-03-19T15:56:55.894Z,4004.00
2019-03-19T15:57:56.520Z,3984.00
2019-03-19T15:58:55.850Z,3936.00
2019-03-19T15:59:55.762Z,4020.00
2019-03-19T16:00:55.752Z,4152.00
2019-03-19T16:01:55.773Z,4076.00
2019-03-19T16:02:55.729Z,3932.00
2019-03-19T16:03:55.862Z,3760.00
2019-03-19T16:04:55.723Z,3596.00
2019-03-19T16:05:55.701Z,3492.00
2019-03-19T16:06:55.692Z,3392.00
2019-03-19T16:07:55.679Z,3384.00
2019-03-19T16:08:55.695Z,3372.00
2019-03-19T16:09:55.658Z,3376.00
2019-03-19T16:10:55.679Z,3368.00
2019-03-19T16:11:55.663Z,3320.00
2019-03-19T16:12:55.706Z,3272.00
2019-03-19T16:13:56.173Z,3252.00
2019-03-19T16:14:55.609Z,3260.00
2019-03-19T16:15:55.602Z,3284.00
2019-03-19T16:16:55.626Z,3216.00
2019-03-19T16:17:55.575Z,3136.00
2019-03-19T16:18:55.565Z,3096.00
2019-03-19T16:19:55.579Z,3140.00
2019-03-19T16:20:55.553Z,2140.00
2019-03-19T16:21:55.566Z,3012.00
2019-03-19T16:22:55.520Z,3076.00
2019-03-19T16:23:55.520Z,3056.00
2019-03-19T16:24:55.510Z,3036.00
2019-03-19T16:25:55.490Z,3064.00
2019-03-19T16:26:56.508Z,3112.00
2019-03-19T16:27:55.511Z,3136.00
2019-03-19T16:28:55.553Z,3128.00
2019-03-19T16:29:55.454Z,3164.00
2019-03-19T16:30:55.445Z,3140.00
2019-03-19T16:31:55.501Z,3088.00
2019-03-19T16:32:55.431Z,3032.00
2019-03-19T16:33:55.404Z,2960.00
2019-03-19T16:34:55.442Z,2800.00
2019-03-19T16:35:55.418Z,2224.00
2019-03-19T16:36:55.413Z,1756.00
2019-03-19T16:37:55.408Z,1724.00
2019-03-19T16:38:55.351Z,1976.00
2019-03-19T16:39:55.345Z,1824.00
2019-03-19T16:40:55.372Z,1600.00
2019-03-19T16:41:55.343Z,1476.00
2019-03-19T16:42:55.322Z,1368.00
2019-03-19T16:43:55.316Z,1292.00
2019-03-19T16:44:55.303Z,1236.00
2019-03-19T16:45:55.319Z,1184.00
2019-03-19T16:46:55.287Z,1124.00
2019-03-19T16:47:55.282Z,1072.00
2019-03-19T16:48:55.251Z,1040.00
2019-03-19T16:49:55.268Z,1020.00
2019-03-19T16:50:56.337Z,1012.00
2019-03-19T16:51:55.239Z,1008.00
2019-03-19T16:52:55.233Z,1008.00
2019-03-19T16:53:55.195Z,1008.00
2019-03-19T16:54:55.178Z,1008.00
2019-03-19T16:55:55.189Z,1012.00
2019-03-19T16:56:55.179Z,1024.00
2019-03-19T16:57:55.185Z,1028.00
2019-03-19T16:58:55.165Z,1024.00
2019-03-19T16:59:55.141Z,1008.00
2019-03-19T17:00:55.150Z,984.00
2019-03-19T17:02:01.831Z,952.00
2019-03-19T17:02:56.101Z,904.00
2019-03-19T17:03:55.114Z,852.00
2019-03-19T17:04:55.071Z,808.00
2019-03-19T17:05:55.090Z,772.00
2019-03-19T17:06:55.064Z,736.00
2019-03-19T17:07:55.080Z,708.00
2019-03-19T17:08:55.030Z,676.00
2019-03-19T17:09:55.102Z,644.00
2019-03-19T17:10:55.696Z,616.00
2019-03-19T17:11:55.018Z,584.00
2019-03-19T17:12:55.056Z,556.00
2019-03-19T17:13:54.990Z,528.00
2019-03-19T17:14:55.002Z,500.00
2019-03-19T17:15:54.968Z,472.00
2019-03-19T17:16:55.005Z,452.00
2019-03-19T17:17:54.971Z,432.00
2019-03-19T17:18:54.945Z,416.00
2019-03-19T17:19:54.911Z,400.00
2019-03-19T17:20:54.904Z,376.00
2019-03-19T17:21:54.900Z,364.00
2019-03-19T17:22:55.225Z,348.00
2019-03-19T17:23:54.936Z,332.00
2019-03-19T17:24:54.869Z,316.00
2019-03-19T17:25:54.879Z,292.00
2019-03-19T17:26:54.850Z,272.00
2019-03-19T17:27:54.830Z,248.00
2019-03-19T17:28:54.842Z,232.00
2019-03-19T17:29:54.811Z,216.00
2019-03-19T17:30:54.848Z,204.00
2019-03-19T17:31:54.865Z,192.00
2019-03-19T17:32:54.770Z,180.00
2019-03-19T17:33:54.791Z,164.00
2019-03-19T17:34:54.766Z,156.00
2019-03-19T17:35:54.742Z,144.00
2019-03-19T17:36:54.789Z,132.00
2019-03-19T17:37:54.783Z,124.00
2019-03-19T17:38:54.708Z,112.00
2019-03-19T17:39:54.702Z,100.00
2019-03-19T17:40:54.699Z,88.00
2019-03-19T17:41:54.719Z,84.00
2019-03-19T17:42:54.690Z,76.00
2019-03-19T17:43:54.660Z,68.00
2019-03-19T17:44:54.668Z,56.00
2019-03-19T17:45:54.741Z,52.00
2019-03-19T17:46:54.737Z,48.00
2019-03-19T17:47:54.621Z,44.00
2019-03-19T17:48:54.606Z,36.00
2019-03-19T17:49:54.591Z,36.00
2019-03-19T17:50:54.634Z,32.00
2019-03-19T17:51:54.667Z,28.00
2019-03-19T17:52:54.657Z,24.00
2019-03-19T17:53:54.555Z,20.00
2019-03-19T17:54:54.545Z,16.00
2019-03-19T17:55:54.563Z,12.00
2019-03-19T17:56:54.528Z,12.00
2019-03-19T17:57:54.525Z,8.00
2019-03-19T17:58:54.508Z,8.00
2019-03-19T17:59:55.226Z,8.00
2019-03-19T18:00:54.504Z,4.00
2019-03-19T18:01:54.464Z,8.00
2019-03-19T18:02:54.466Z,4.00
2019-03-19T18:03:54.476Z,4.00
2019-03-19T18:04:54.514Z,4.00
2019-03-19T18:05:54.485Z,4.00
2019-03-19T18:06:54.499Z,0.00
2019-03-19T18:07:54.445Z,4.00
2019-03-19T18:08:54.446Z,4.00
2019-03-19T18:09:54.401Z,0.00
2019-03-19T18:10:54.422Z,0.00
2019-03-19T18:11:54.367Z,0.00
2019-03-19T18:12:54.356Z,0.00
2019-03-19T18:13:54.341Z,0.00
2019-03-19T18:14:54.325Z,0.00
2019-03-19T18:15:54.351Z,0.00
2019-03-19T18:16:54.302Z,0.00
2019-03-19T18:17:54.303Z,0.00
2019-03-19T18:18:54.335Z,0.00
2019-03-19T18:19:54.271Z,0.00
2019-03-19T18:20:54.305Z,0.00
2019-03-19T18:21:54.263Z,0.00
2019-03-19T18:22:54.238Z,0.00
2019-03-19T18:23:54.269Z,0.00
2019-03-19T18:24:54.221Z,0.00
2019-03-19T18:25:54.213Z,0.00
2019-03-19T18:26:54.221Z,0.00
2019-03-19T18:27:54.193Z,0.00
2019-03-19T18:28:54.211Z,0.00
2019-03-19T18:29:55.567Z,0.00
2019-03-19T18:30:54.176Z,0.00
2019-03-19T18:31:54.143Z,0.00
2019-03-19T18:32:54.158Z,0.00
2019-03-19T18:33:54.136Z,0.00
2019-03-19T18:34:54.118Z,0.00
2019-03-19T18:35:56.270Z,0.00
2019-03-19T18:36:54.100Z,0.00
2019-03-19T18:37:54.121Z,0.00
2019-03-19T18:38:54.079Z,0.00
2019-03-19T18:39:54.065Z,0.00
2019-03-19T18:40:54.057Z,0.00
2019-03-19T18:41:54.037Z,0.00
2019-03-19T18:42:54.054Z,0.00
2019-03-19T18:43:54.043Z,0.00
2019-03-19T18:44:54.025Z,0.00
2019-03-19T18:45:54.007Z,0.00
2019-03-19T18:46:54.003Z,0.00
2019-03-19T18:47:54.024Z,0.00
2019-03-19T18:48:53.966Z,0.00
2019-03-19T18:49:53.955Z,0.00
2019-03-19T18:50:53.955Z,0.00
2019-03-19T18:51:53.935Z,0.00
2019-03-19T18:52:53.953Z,0.00
2019-03-19T18:53:53.936Z,0.00
2019-03-19T18:54:53.924Z,0.00
2019-03-19T18:55:53.894Z,0.00
2019-03-19T18:56:53.890Z,0.00
2019-03-19T18:57:53.908Z,0.00
2019-03-19T18:58:53.856Z,0.00
2019-03-19T18:59:53.852Z,0.00
2019-03-19T19:00:53.879Z,0.00
2019-03-19T19:01:53.839Z,0.00
2019-03-19T19:02:53.836Z,0.00
2019-03-19T19:03:53.817Z,0.00
2019-03-19T19:04:53.818Z,0.00
2019-03-19T19:05:53.817Z,0.00
2019-03-19T19:06:53.806Z,0.00
2019-03-19T19:07:53.838Z,0.00
2019-03-19T19:08:53.804Z,0.00
2019-03-19T19:09:53.754Z,0.00
2019-03-19T19:10:53.755Z,0.00
2019-03-19T19:11:53.750Z,0.00
2019-03-19T19:12:53.720Z,0.00
2019-03-19T19:13:53.773Z,0.00
2019-03-19T19:14:53.730Z,0.00
2019-03-19T19:15:53.688Z,0.00
2019-03-19T19:16:53.690Z,0.00
2019-03-19T19:17:53.695Z,0.00
2019-03-19T19:18:53.682Z,0.00
2019-03-19T19:19:53.658Z,0.00
2019-03-19T19:20:53.661Z,0.00
2019-03-19T19:21:53.649Z,0.00
2019-03-19T19:22:53.618Z,0.00
2019-03-19T19:23:53.617Z,0.00
2019-03-19T19:24:53.583Z,0.00
2019-03-19T19:25:53.680Z,0.00
2019-03-19T19:26:53.564Z,0.00
2019-03-19T19:27:53.782Z,0.00
2019-03-19T19:28:53.572Z,0.00
2019-03-19T19:29:53.544Z,0.00
2019-03-19T19:30:53.520Z,0.00
2019-03-19T19:31:53.540Z,0.00
2019-03-19T19:33:01.463Z,0.00
2019-03-19T19:33:54.547Z,0.00
2019-03-19T19:34:53.515Z,0.00
2019-03-19T19:35:53.489Z,0.00
2019-03-19T19:36:53.470Z,0.00
2019-03-19T19:37:53.474Z,0.00
2019-03-19T19:38:53.500Z,0.00
2019-03-19T19:39:53.435Z,0.00
2019-03-19T19:40:53.487Z,0.00
2019-03-19T19:41:53.421Z,0.00
2019-03-19T19:42:53.431Z,0.00
2019-03-19T19:43:53.418Z,0.00
2019-03-19T19:44:53.813Z,0.00
2019-03-19T19:45:53.360Z,0.00
2019-03-19T19:46:53.348Z,0.00
2019-03-19T19:47:53.495Z,0.00
2019-03-19T19:48:53.750Z,0.00
2019-03-19T19:49:53.310Z,0.00
2019-03-19T19:50:53.338Z,0.00
2019-03-19T19:51:53.288Z,0.00
2019-03-19T19:52:53.333Z,0.00
2019-03-19T19:53:53.272Z,0.00
2019-03-19T19:54:53.311Z,0.00
2019-03-19T19:55:53.254Z,0.00
2019-03-19T19:56:53.241Z,0.00
2019-03-19T19:57:53.249Z,0.00
2019-03-19T19:58:53.237Z,0.00
2019-03-19T19:59:53.252Z,0.00
2019-03-19T20:00:53.209Z,0.00
2019-03-19T20:01:53.210Z,0.00
2019-03-19T20:02:54.731Z,0.00
2019-03-19T20:03:53.179Z,0.00
2019-03-19T20:05:02.486Z,0.00
2019-03-19T20:05:54.174Z,0.00
2019-03-19T20:06:53.136Z,0.00
2019-03-19T20:07:53.160Z,0.00
2019-03-19T20:08:53.140Z,0.00
2019-03-19T20:09:53.115Z,0.00
2019-03-19T20:10:53.093Z,0.00
2019-03-19T20:11:53.113Z,0.00
2019-03-19T20:12:53.123Z,0.00
2019-03-19T20:13:53.064Z,0.00
2019-03-19T20:14:53.051Z,0.00
2019-03-19T20:15:53.035Z,0.00
2019-03-19T20:16:53.042Z,0.00
2019-03-19T20:17:53.067Z,0.00
2019-03-19T20:18:53.001Z,0.00
2019-03-19T20:19:52.993Z,0.00
2019-03-19T20:20:52.974Z,0.00
2019-03-19T20:21:53.011Z,0.00
2019-03-19T20:22:52.963Z,0.00
2019-03-19T20:23:52.957Z,0.00
2019-03-19T20:24:52.940Z,0.00
2019-03-19T20:25:52.955Z,0.00
2019-03-19T20:26:52.984Z,0.00
2019-03-19T20:27:52.953Z,0.00
2019-03-19T20:28:52.909Z,0.00
2019-03-19T20:29:52.884Z,0.00
2019-03-19T20:30:52.868Z,0.00
2019-03-19T20:31:52.912Z,0.00
2019-03-19T20:32:52.887Z,0.00
2019-03-19T20:33:52.850Z,0.00
2019-03-19T20:34:52.837Z,0.00
2019-03-19T20:35:52.819Z,0.00
2019-03-19T20:36:52.802Z,0.00
2019-03-19T20:37:52.821Z,0.00
2019-03-19T20:38:52.789Z,0.00
2019-03-19T20:39:52.766Z,0.00
2019-03-19T20:40:52.761Z,0.00
2019-03-19T20:41:52.752Z,0.00
2019-03-19T20:42:52.776Z,0.00
2019-03-19T20:43:52.741Z,0.00
2019-03-19T20:44:52.748Z,0.00
2019-03-19T20:45:52.715Z,0.00
2019-03-19T20:46:52.734Z,0.00
2019-03-19T20:47:52.690Z,0.00
2019-03-19T20:48:52.710Z,0.00
2019-03-19T20:49:52.703Z,0.00
2019-03-19T20:50:52.662Z,0.00
2019-03-19T20:51:52.672Z,0.00
2019-03-19T20:52:52.667Z,0.00
2019-03-19T20:53:52.654Z,0.00
2019-03-19T20:54:52.616Z,0.00
2019-03-19T20:55:52.656Z,0.00
2019-03-19T20:56:52.641Z,0.00
2019-03-19T20:57:52.579Z,0.00
2019-03-19T20:58:52.594Z,0.00
2019-03-19T20:59:52.590Z,0.00
